sensor_id;sensor_type;location;lat;lon;timestamp;P1;durP1;ratioP1;P2;durP2;ratioP2
14268;SDS011;7218;51.480;7.006;2023-12-29T00:02:05;7.53;;;1.70;;
14268;SDS011;7218;51.480;7.006;2023-12-29T00:04:32;5.28;;;1.88;;
14268;SDS011;7218;51.480;7.006;2023-12-29T00:07:00;7.07;;;1.50;;
14268;SDS011;7218;51.480;7.006;2023-12-29T00:09:27;6.97;;;1.70;;
14268;SDS011;7218;51.480;7.006;2023-12-29T00:11:53;3.15;;;1.58;;
14268;SDS011;7218;51.480;7.006;2023-12-29T00:14:20;5.45;;;1.55;;
14268;SDS011;7218;51.480;7.006;2023-12-29T00:16:46;4.30;;;1.55;;
14268;SDS011;7218;51.480;7.006;2023-12-29T00:19:13;5.05;;;1.30;;
14268;SDS011;7218;51.480;7.006;2023-12-29T00:21:39;6.57;;;1.63;;
14268;SDS011;7218;51.480;7.006;2023-12-29T00:24:07;2.30;;;1.00;;
14268;SDS011;7218;51.480;7.006;2023-12-29T00:26:34;3.53;;;1.33;;
14268;SDS011;7218;51.480;7.006;2023-12-29T00:29:00;6.80;;;1.63;;
14268;SDS011;7218;51.480;7.006;2023-12-29T00:31:27;5.45;;;1.30;;
14268;SDS011;7218;51.480;7.006;2023-12-29T00:33:53;5.57;;;1.48;;
14268;SDS011;7218;51.480;7.006;2023-12-29T00:36:20;5.63;;;1.70;;
14268;SDS011;7218;51.480;7.006;2023-12-29T00:38:46;8.55;;;1.95;;
14268;SDS011;7218;51.480;7.006;2023-12-29T00:41:14;6.78;;;1.65;;
14268;SDS011;7218;51.480;7.006;2023-12-29T00:43:40;5.75;;;1.65;;
14268;SDS011;7218;51.480;7.006;2023-12-29T00:46:07;5.13;;;1.50;;
14268;SDS011;7218;51.480;7.006;2023-12-29T00:48:34;4.93;;;1.50;;
14268;SDS011;7218;51.480;7.006;2023-12-29T00:51:01;4.90;;;1.20;;
14268;SDS011;7218;51.480;7.006;2023-12-29T00:53:28;6.82;;;1.70;;
14268;SDS011;7218;51.480;7.006;2023-12-29T00:55:57;5.13;;;1.33;;
14268;SDS011;7218;51.480;7.006;2023-12-29T00:58:25;7.00;;;1.35;;
14268;SDS011;7218;51.480;7.006;2023-12-29T01:00:51;5.10;;;1.40;;
14268;SDS011;7218;51.480;7.006;2023-12-29T01:03:20;4.80;;;1.52;;
14268;SDS011;7218;51.480;7.006;2023-12-29T01:05:47;4.15;;;1.50;;
14268;SDS011;7218;51.480;7.006;2023-12-29T01:08:14;3.05;;;1.20;;
14268;SDS011;7218;51.480;7.006;2023-12-29T01:10:41;3.70;;;1.15;;
14268;SDS011;7218;51.480;7.006;2023-12-29T01:13:07;4.10;;;1.27;;
14268;SDS011;7218;51.480;7.006;2023-12-29T01:15:35;4.50;;;1.35;;
14268;SDS011;7218;51.480;7.006;2023-12-29T01:18:02;2.95;;;1.15;;
14268;SDS011;7218;51.480;7.006;2023-12-29T01:20:28;4.88;;;1.67;;
14268;SDS011;7218;51.480;7.006;2023-12-29T01:22:55;3.70;;;1.42;;
14268;SDS011;7218;51.480;7.006;2023-12-29T01:25:21;4.38;;;1.50;;
14268;SDS011;7218;51.480;7.006;2023-12-29T01:27:49;3.58;;;1.40;;
14268;SDS011;7218;51.480;7.006;2023-12-29T01:30:15;4.40;;;1.50;;
14268;SDS011;7218;51.480;7.006;2023-12-29T01:32:43;4.70;;;1.27;;
14268;SDS011;7218;51.480;7.006;2023-12-29T01:35:09;6.32;;;1.33;;
14268;SDS011;7218;51.480;7.006;2023-12-29T01:37:36;5.22;;;1.33;;
14268;SDS011;7218;51.480;7.006;2023-12-29T01:40:03;8.18;;;1.95;;
14268;SDS011;7218;51.480;7.006;2023-12-29T01:42:30;3.80;;;1.35;;
14268;SDS011;7218;51.480;7.006;2023-12-29T01:44:56;4.82;;;1.60;;
14268;SDS011;7218;51.480;7.006;2023-12-29T01:47:23;3.85;;;1.50;;
14268;SDS011;7218;51.480;7.006;2023-12-29T01:49:51;5.53;;;1.50;;
14268;SDS011;7218;51.480;7.006;2023-12-29T01:52:17;6.50;;;1.50;;
14268;SDS011;7218;51.480;7.006;2023-12-29T01:54:45;5.47;;;1.40;;
14268;SDS011;7218;51.480;7.006;2023-12-29T01:57:13;6.25;;;1.63;;
14268;SDS011;7218;51.480;7.006;2023-12-29T01:59:40;4.63;;;1.83;;
14268;SDS011;7218;51.480;7.006;2023-12-29T02:02:08;6.38;;;1.70;;
14268;SDS011;7218;51.480;7.006;2023-12-29T02:04:35;4.07;;;1.60;;
14268;SDS011;7218;51.480;7.006;2023-12-29T02:07:05;6.00;;;1.60;;
14268;SDS011;7218;51.480;7.006;2023-12-29T02:09:31;5.97;;;1.83;;
14268;SDS011;7218;51.480;7.006;2023-12-29T02:11:59;5.38;;;1.70;;
14268;SDS011;7218;51.480;7.006;2023-12-29T02:14:26;6.72;;;1.60;;
14268;SDS011;7218;51.480;7.006;2023-12-29T02:16:55;5.32;;;1.55;;
14268;SDS011;7218;51.480;7.006;2023-12-29T02:19:33;4.32;;;1.70;;
14268;SDS011;7218;51.480;7.006;2023-12-29T02:22:05;4.05;;;1.60;;
14268;SDS011;7218;51.480;7.006;2023-12-29T02:24:33;4.78;;;1.50;;
14268;SDS011;7218;51.480;7.006;2023-12-29T02:27:04;7.88;;;1.92;;
14268;SDS011;7218;51.480;7.006;2023-12-29T02:29:37;4.95;;;1.63;;
14268;SDS011;7218;51.480;7.006;2023-12-29T02:32:06;9.77;;;1.92;;
14268;SDS011;7218;51.480;7.006;2023-12-29T02:34:38;11.95;;;2.03;;
14268;SDS011;7218;51.480;7.006;2023-12-29T02:37:07;6.53;;;1.60;;
14268;SDS011;7218;51.480;7.006;2023-12-29T02:39:34;6.68;;;1.52;;
14268;SDS011;7218;51.480;7.006;2023-12-29T02:42:01;7.15;;;1.90;;
14268;SDS011;7218;51.480;7.006;2023-12-29T02:44:28;11.68;;;2.00;;
14268;SDS011;7218;51.480;7.006;2023-12-29T02:46:55;10.57;;;2.03;;
14268;SDS011;7218;51.480;7.006;2023-12-29T02:49:21;7.13;;;1.90;;
14268;SDS011;7218;51.480;7.006;2023-12-29T02:51:48;6.28;;;1.75;;
14268;SDS011;7218;51.480;7.006;2023-12-29T02:54:15;7.22;;;1.75;;
14268;SDS011;7218;51.480;7.006;2023-12-29T02:56:41;7.32;;;1.98;;
14268;SDS011;7218;51.480;7.006;2023-12-29T02:59:08;6.75;;;1.90;;
14268;SDS011;7218;51.480;7.006;2023-12-29T03:01:36;7.75;;;1.85;;
14268;SDS011;7218;51.480;7.006;2023-12-29T03:04:02;3.75;;;1.85;;
14268;SDS011;7218;51.480;7.006;2023-12-29T03:06:29;5.78;;;2.00;;
14268;SDS011;7218;51.480;7.006;2023-12-29T03:08:55;8.23;;;1.80;;
14268;SDS011;7218;51.480;7.006;2023-12-29T03:11:22;8.25;;;1.63;;
14268;SDS011;7218;51.480;7.006;2023-12-29T03:13:48;5.68;;;1.67;;
14268;SDS011;7218;51.480;7.006;2023-12-29T03:16:15;3.47;;;1.35;;
14268;SDS011;7218;51.480;7.006;2023-12-29T03:18:43;6.35;;;1.98;;
14268;SDS011;7218;51.480;7.006;2023-12-29T03:21:09;8.63;;;2.00;;
14268;SDS011;7218;51.480;7.006;2023-12-29T03:23:35;6.50;;;1.70;;
14268;SDS011;7218;51.480;7.006;2023-12-29T03:26:02;7.82;;;1.70;;
14268;SDS011;7218;51.480;7.006;2023-12-29T03:28:28;4.70;;;1.50;;
14268;SDS011;7218;51.480;7.006;2023-12-29T03:30:55;6.05;;;1.60;;
14268;SDS011;7218;51.480;7.006;2023-12-29T03:33:21;4.55;;;1.80;;
14268;SDS011;7218;51.480;7.006;2023-12-29T03:35:49;7.32;;;1.38;;
14268;SDS011;7218;51.480;7.006;2023-12-29T03:38:15;5.55;;;1.80;;
14268;SDS011;7218;51.480;7.006;2023-12-29T03:40:42;8.52;;;1.70;;
14268;SDS011;7218;51.480;7.006;2023-12-29T03:43:09;7.38;;;1.92;;
14268;SDS011;7218;51.480;7.006;2023-12-29T03:45:35;5.55;;;2.00;;
14268;SDS011;7218;51.480;7.006;2023-12-29T03:48:02;4.30;;;1.42;;
14268;SDS011;7218;51.480;7.006;2023-12-29T03:50:28;6.43;;;1.88;;
14268;SDS011;7218;51.480;7.006;2023-12-29T03:52:56;9.35;;;2.55;;
14268;SDS011;7218;51.480;7.006;2023-12-29T03:55:22;8.75;;;1.73;;
14268;SDS011;7218;51.480;7.006;2023-12-29T03:57:49;3.35;;;1.38;;
14268;SDS011;7218;51.480;7.006;2023-12-29T04:00:15;9.95;;;1.75;;
14268;SDS011;7218;51.480;7.006;2023-12-29T04:02:43;4.35;;;1.40;;
14268;SDS011;7218;51.480;7.006;2023-12-29T04:05:09;5.85;;;1.90;;
14268;SDS011;7218;51.480;7.006;2023-12-29T04:07:36;6.95;;;1.90;;
14268;SDS011;7218;51.480;7.006;2023-12-29T04:10:04;7.47;;;1.83;;
14268;SDS011;7218;51.480;7.006;2023-12-29T04:12:31;6.35;;;1.92;;
14268;SDS011;7218;51.480;7.006;2023-12-29T04:14:57;6.65;;;1.77;;
14268;SDS011;7218;51.480;7.006;2023-12-29T04:17:24;8.38;;;1.67;;
14268;SDS011;7218;51.480;7.006;2023-12-29T04:19:50;6.05;;;1.80;;
14268;SDS011;7218;51.480;7.006;2023-12-29T04:22:17;7.80;;;1.98;;
14268;SDS011;7218;51.480;7.006;2023-12-29T04:24:43;5.68;;;1.70;;
14268;SDS011;7218;51.480;7.006;2023-12-29T04:27:11;8.82;;;1.77;;
14268;SDS011;7218;51.480;7.006;2023-12-29T04:29:37;8.90;;;1.70;;
14268;SDS011;7218;51.480;7.006;2023-12-29T04:32:04;6.10;;;1.65;;
14268;SDS011;7218;51.480;7.006;2023-12-29T04:34:31;7.47;;;1.80;;
14268;SDS011;7218;51.480;7.006;2023-12-29T04:36:57;4.95;;;1.55;;
14268;SDS011;7218;51.480;7.006;2023-12-29T04:39:24;7.43;;;1.60;;
14268;SDS011;7218;51.480;7.006;2023-12-29T04:41:50;4.82;;;1.50;;
14268;SDS011;7218;51.480;7.006;2023-12-29T04:44:18;5.43;;;1.50;;
14268;SDS011;7218;51.480;7.006;2023-12-29T04:46:44;4.35;;;1.40;;
14268;SDS011;7218;51.480;7.006;2023-12-29T04:49:11;4.85;;;1.50;;
14268;SDS011;7218;51.480;7.006;2023-12-29T04:51:37;6.05;;;1.70;;
14268;SDS011;7218;51.480;7.006;2023-12-29T04:54:04;8.57;;;1.60;;
14268;SDS011;7218;51.480;7.006;2023-12-29T04:56:31;11.10;;;1.63;;
14268;SDS011;7218;51.480;7.006;2023-12-29T04:58:57;5.07;;;1.63;;
14268;SDS011;7218;51.480;7.006;2023-12-29T05:01:25;5.50;;;1.48;;
14268;SDS011;7218;51.480;7.006;2023-12-29T05:03:53;7.60;;;1.98;;
14268;SDS011;7218;51.480;7.006;2023-12-29T05:06:19;8.07;;;1.85;;
14268;SDS011;7218;51.480;7.006;2023-12-29T05:08:46;6.25;;;1.42;;
14268;SDS011;7218;51.480;7.006;2023-12-29T05:11:12;6.90;;;1.58;;
14268;SDS011;7218;51.480;7.006;2023-12-29T05:13:38;5.88;;;1.70;;
14268;SDS011;7218;51.480;7.006;2023-12-29T05:16:05;6.53;;;1.85;;
14268;SDS011;7218;51.480;7.006;2023-12-29T05:18:33;5.75;;;1.67;;
14268;SDS011;7218;51.480;7.006;2023-12-29T05:21:00;4.18;;;1.10;;
14268;SDS011;7218;51.480;7.006;2023-12-29T05:23:26;8.48;;;1.85;;
14268;SDS011;7218;51.480;7.006;2023-12-29T05:25:53;7.72;;;1.85;;
14268;SDS011;7218;51.480;7.006;2023-12-29T05:28:19;6.00;;;1.42;;
14268;SDS011;7218;51.480;7.006;2023-12-29T05:30:45;5.75;;;1.45;;
14268;SDS011;7218;51.480;7.006;2023-12-29T05:33:12;6.72;;;1.48;;
14268;SDS011;7218;51.480;7.006;2023-12-29T05:35:40;8.52;;;1.85;;
14268;SDS011;7218;51.480;7.006;2023-12-29T05:38:07;7.32;;;1.95;;
14268;SDS011;7218;51.480;7.006;2023-12-29T05:40:33;7.65;;;1.73;;
14268;SDS011;7218;51.480;7.006;2023-12-29T05:43:00;9.10;;;1.70;;
14268;SDS011;7218;51.480;7.006;2023-12-29T05:45:26;7.45;;;1.60;;
14268;SDS011;7218;51.480;7.006;2023-12-29T05:47:52;8.32;;;1.65;;
14268;SDS011;7218;51.480;7.006;2023-12-29T05:50:19;2.97;;;1.38;;
14268;SDS011;7218;51.480;7.006;2023-12-29T05:52:47;6.75;;;1.83;;
14268;SDS011;7218;51.480;7.006;2023-12-29T05:55:16;4.35;;;1.45;;
14268;SDS011;7218;51.480;7.006;2023-12-29T05:57:43;6.90;;;1.80;;
14268;SDS011;7218;51.480;7.006;2023-12-29T06:00:10;10.73;;;2.10;;
14268;SDS011;7218;51.480;7.006;2023-12-29T06:02:39;7.50;;;1.85;;
14268;SDS011;7218;51.480;7.006;2023-12-29T06:05:06;7.35;;;1.60;;
14268;SDS011;7218;51.480;7.006;2023-12-29T06:07:33;4.22;;;1.77;;
14268;SDS011;7218;51.480;7.006;2023-12-29T06:10:01;6.03;;;1.60;;
14268;SDS011;7218;51.480;7.006;2023-12-29T06:12:28;6.97;;;1.70;;
14268;SDS011;7218;51.480;7.006;2023-12-29T06:14:54;4.93;;;1.67;;
14268;SDS011;7218;51.480;7.006;2023-12-29T06:17:21;7.82;;;1.55;;
14268;SDS011;7218;51.480;7.006;2023-12-29T06:19:47;7.88;;;1.70;;
14268;SDS011;7218;51.480;7.006;2023-12-29T06:22:14;9.00;;;1.83;;
14268;SDS011;7218;51.480;7.006;2023-12-29T06:24:40;4.30;;;1.23;;
14268;SDS011;7218;51.480;7.006;2023-12-29T06:27:08;6.20;;;3.00;;
14268;SDS011;7218;51.480;7.006;2023-12-29T06:29:35;9.38;;;1.98;;
14268;SDS011;7218;51.480;7.006;2023-12-29T06:32:02;6.47;;;1.60;;
14268;SDS011;7218;51.480;7.006;2023-12-29T06:34:29;5.03;;;1.45;;
14268;SDS011;7218;51.480;7.006;2023-12-29T06:36:55;6.65;;;1.50;;
14268;SDS011;7218;51.480;7.006;2023-12-29T06:39:22;9.32;;;1.92;;
14268;SDS011;7218;51.480;7.006;2023-12-29T06:41:48;5.15;;;1.80;;
14268;SDS011;7218;51.480;7.006;2023-12-29T06:44:16;6.95;;;1.45;;
14268;SDS011;7218;51.480;7.006;2023-12-29T06:46:43;5.78;;;1.67;;
14268;SDS011;7218;51.480;7.006;2023-12-29T06:49:10;5.45;;;1.67;;
14268;SDS011;7218;51.480;7.006;2023-12-29T06:51:36;8.30;;;1.65;;
14268;SDS011;7218;51.480;7.006;2023-12-29T06:54:04;5.95;;;1.60;;
14268;SDS011;7218;51.480;7.006;2023-12-29T06:56:30;7.20;;;1.85;;
14268;SDS011;7218;51.480;7.006;2023-12-29T06:58:57;8.13;;;1.77;;
14268;SDS011;7218;51.480;7.006;2023-12-29T07:01:24;5.72;;;1.52;;
14268;SDS011;7218;51.480;7.006;2023-12-29T07:03:51;6.38;;;1.50;;
14268;SDS011;7218;51.480;7.006;2023-12-29T07:06:17;6.60;;;1.60;;
14268;SDS011;7218;51.480;7.006;2023-12-29T07:08:44;4.95;;;1.40;;
14268;SDS011;7218;51.480;7.006;2023-12-29T07:11:11;4.70;;;1.48;;
14268;SDS011;7218;51.480;7.006;2023-12-29T07:13:38;3.88;;;1.42;;
14268;SDS011;7218;51.480;7.006;2023-12-29T07:16:04;4.85;;;1.10;;
14268;SDS011;7218;51.480;7.006;2023-12-29T07:18:33;7.32;;;1.48;;
14268;SDS011;7218;51.480;7.006;2023-12-29T07:20:59;7.20;;;1.88;;
14268;SDS011;7218;51.480;7.006;2023-12-29T07:23:25;4.38;;;1.58;;
14268;SDS011;7218;51.480;7.006;2023-12-29T07:25:52;5.13;;;1.40;;
14268;SDS011;7218;51.480;7.006;2023-12-29T07:28:18;7.93;;;1.73;;
14268;SDS011;7218;51.480;7.006;2023-12-29T07:30:45;8.00;;;1.70;;
14268;SDS011;7218;51.480;7.006;2023-12-29T07:33:10;4.00;;;1.52;;
14268;SDS011;7218;51.480;7.006;2023-12-29T07:35:38;7.47;;;1.83;;
14268;SDS011;7218;51.480;7.006;2023-12-29T07:38:04;6.15;;;1.85;;
14268;SDS011;7218;51.480;7.006;2023-12-29T07:40:31;5.50;;;1.50;;
14268;SDS011;7218;51.480;7.006;2023-12-29T07:42:57;7.10;;;1.42;;
14268;SDS011;7218;51.480;7.006;2023-12-29T07:45:24;8.07;;;1.95;;
14268;SDS011;7218;51.480;7.006;2023-12-29T07:47:50;6.72;;;1.55;;
14268;SDS011;7218;51.480;7.006;2023-12-29T07:50:17;6.70;;;1.65;;
14268;SDS011;7218;51.480;7.006;2023-12-29T07:52:45;7.93;;;1.83;;
14268;SDS011;7218;51.480;7.006;2023-12-29T07:55:11;7.28;;;1.70;;
14268;SDS011;7218;51.480;7.006;2023-12-29T07:57:37;8.35;;;1.70;;
14268;SDS011;7218;51.480;7.006;2023-12-29T08:00:04;5.63;;;1.75;;
14268;SDS011;7218;51.480;7.006;2023-12-29T08:02:32;6.18;;;1.55;;
14268;SDS011;7218;51.480;7.006;2023-12-29T08:04:59;8.43;;;1.90;;
14268;SDS011;7218;51.480;7.006;2023-12-29T08:07:25;9.27;;;1.70;;
14268;SDS011;7218;51.480;7.006;2023-12-29T08:09:53;5.93;;;1.52;;
14268;SDS011;7218;51.480;7.006;2023-12-29T08:12:19;5.88;;;1.38;;
14268;SDS011;7218;51.480;7.006;2023-12-29T08:14:46;3.97;;;1.35;;
14268;SDS011;7218;51.480;7.006;2023-12-29T08:17:12;6.03;;;1.30;;
14268;SDS011;7218;51.480;7.006;2023-12-29T08:19:39;6.93;;;1.70;;
14268;SDS011;7218;51.480;7.006;2023-12-29T08:22:06;4.75;;;1.65;;
14268;SDS011;7218;51.480;7.006;2023-12-29T08:24:32;5.95;;;1.42;;
14268;SDS011;7218;51.480;7.006;2023-12-29T08:27:01;4.85;;;1.35;;
14268;SDS011;7218;51.480;7.006;2023-12-29T08:29:28;5.45;;;1.50;;
14268;SDS011;7218;51.480;7.006;2023-12-29T08:31:55;2.90;;;1.20;;
14268;SDS011;7218;51.480;7.006;2023-12-29T08:34:21;8.85;;;1.67;;
14268;SDS011;7218;51.480;7.006;2023-12-29T08:36:48;9.35;;;1.85;;
14268;SDS011;7218;51.480;7.006;2023-12-29T08:39:14;4.22;;;1.13;;
14268;SDS011;7218;51.480;7.006;2023-12-29T08:41:41;6.60;;;1.30;;
14268;SDS011;7218;51.480;7.006;2023-12-29T08:44:08;7.57;;;1.48;;
14268;SDS011;7218;51.480;7.006;2023-12-29T08:46:35;6.45;;;1.70;;
14268;SDS011;7218;51.480;7.006;2023-12-29T08:49:01;5.43;;;1.10;;
14268;SDS011;7218;51.480;7.006;2023-12-29T08:51:28;4.38;;;1.20;;
14268;SDS011;7218;51.480;7.006;2023-12-29T08:53:54;6.80;;;1.65;;
14268;SDS011;7218;51.480;7.006;2023-12-29T08:56:21;6.00;;;1.50;;
14268;SDS011;7218;51.480;7.006;2023-12-29T08:58:47;3.88;;;1.25;;
14268;SDS011;7218;51.480;7.006;2023-12-29T09:01:15;4.28;;;1.30;;
14268;SDS011;7218;51.480;7.006;2023-12-29T09:03:42;3.50;;;1.10;;
14268;SDS011;7218;51.480;7.006;2023-12-29T09:06:08;2.95;;;1.48;;
14268;SDS011;7218;51.480;7.006;2023-12-29T09:08:35;4.50;;;1.00;;
14268;SDS011;7218;51.480;7.006;2023-12-29T09:11:01;3.65;;;1.23;;
14268;SDS011;7218;51.480;7.006;2023-12-29T09:13:28;4.63;;;1.40;;
14268;SDS011;7218;51.480;7.006;2023-12-29T09:15:55;3.05;;;1.00;;
14268;SDS011;7218;51.480;7.006;2023-12-29T09:18:23;4.13;;;1.15;;
14268;SDS011;7218;51.480;7.006;2023-12-29T09:20:50;5.07;;;1.25;;
14268;SDS011;7218;51.480;7.006;2023-12-29T09:23:17;2.60;;;0.98;;
14268;SDS011;7218;51.480;7.006;2023-12-29T09:25:43;3.55;;;1.10;;
14268;SDS011;7218;51.480;7.006;2023-12-29T09:28:10;2.78;;;1.00;;
14268;SDS011;7218;51.480;7.006;2023-12-29T09:30:37;3.15;;;0.93;;
14268;SDS011;7218;51.480;7.006;2023-12-29T09:33:03;4.32;;;1.05;;
14268;SDS011;7218;51.480;7.006;2023-12-29T09:35:31;2.17;;;0.98;;
14268;SDS011;7218;51.480;7.006;2023-12-29T09:37:58;2.53;;;0.88;;
14268;SDS011;7218;51.480;7.006;2023-12-29T09:40:25;1.05;;;0.70;;
14268;SDS011;7218;51.480;7.006;2023-12-29T09:42:52;1.13;;;0.68;;
14268;SDS011;7218;51.480;7.006;2023-12-29T09:45:20;2.92;;;0.95;;
14268;SDS011;7218;51.480;7.006;2023-12-29T09:47:50;1.73;;;0.60;;
14268;SDS011;7218;51.480;7.006;2023-12-29T09:50:18;1.10;;;0.50;;
14268;SDS011;7218;51.480;7.006;2023-12-29T09:52:47;1.63;;;0.60;;
14268;SDS011;7218;51.480;7.006;2023-12-29T09:55:15;2.00;;;0.70;;
14268;SDS011;7218;51.480;7.006;2023-12-29T09:57:41;2.47;;;0.68;;
14268;SDS011;7218;51.480;7.006;2023-12-29T10:00:09;2.45;;;0.50;;
14268;SDS011;7218;51.480;7.006;2023-12-29T10:02:37;1.95;;;0.80;;
14268;SDS011;7218;51.480;7.006;2023-12-29T10:05:04;1.80;;;1.00;;
14268;SDS011;7218;51.480;7.006;2023-12-29T10:07:32;2.58;;;0.65;;
14268;SDS011;7218;51.480;7.006;2023-12-29T10:10:04;2.00;;;0.73;;
14268;SDS011;7218;51.480;7.006;2023-12-29T10:12:32;1.52;;;0.65;;
14268;SDS011;7218;51.480;7.006;2023-12-29T10:15:04;1.17;;;0.70;;
14268;SDS011;7218;51.480;7.006;2023-12-29T10:17:36;1.27;;;0.50;;
14268;SDS011;7218;51.480;7.006;2023-12-29T10:20:11;1.92;;;0.70;;
14268;SDS011;7218;51.480;7.006;2023-12-29T10:22:48;0.80;;;0.60;;
14268;SDS011;7218;51.480;7.006;2023-12-29T10:25:21;1.67;;;0.95;;
14268;SDS011;7218;51.480;7.006;2023-12-29T10:27:49;0.88;;;0.43;;
14268;SDS011;7218;51.480;7.006;2023-12-29T10:30:16;1.23;;;0.45;;
14268;SDS011;7218;51.480;7.006;2023-12-29T10:32:48;1.45;;;0.55;;
14268;SDS011;7218;51.480;7.006;2023-12-29T10:35:16;1.33;;;0.60;;
14268;SDS011;7218;51.480;7.006;2023-12-29T10:37:43;2.47;;;0.70;;
14268;SDS011;7218;51.480;7.006;2023-12-29T10:40:10;2.67;;;0.80;;
14268;SDS011;7218;51.480;7.006;2023-12-29T10:42:52;1.27;;;0.77;;
14268;SDS011;7218;51.480;7.006;2023-12-29T10:45:19;1.23;;;0.73;;
14268;SDS011;7218;51.480;7.006;2023-12-29T10:47:46;1.25;;;0.90;;
14268;SDS011;7218;51.480;7.006;2023-12-29T10:50:13;1.10;;;0.82;;
14268;SDS011;7218;51.480;7.006;2023-12-29T10:52:40;1.25;;;1.02;;
14268;SDS011;7218;51.480;7.006;2023-12-29T10:55:07;2.83;;;1.20;;
14268;SDS011;7218;51.480;7.006;2023-12-29T10:57:35;2.22;;;1.08;;
14268;SDS011;7218;51.480;7.006;2023-12-29T11:00:04;2.38;;;1.00;;
14268;SDS011;7218;51.480;7.006;2023-12-29T11:02:32;5.40;;;1.13;;
14268;SDS011;7218;51.480;7.006;2023-12-29T11:05:02;2.50;;;1.10;;
14268;SDS011;7218;51.480;7.006;2023-12-29T11:07:33;1.27;;;1.00;;
14268;SDS011;7218;51.480;7.006;2023-12-29T11:10:02;2.25;;;1.10;;
14268;SDS011;7218;51.480;7.006;2023-12-29T11:12:30;2.05;;;0.82;;
14268;SDS011;7218;51.480;7.006;2023-12-29T11:14:58;3.85;;;1.33;;
14268;SDS011;7218;51.480;7.006;2023-12-29T11:17:29;1.95;;;0.90;;
14268;SDS011;7218;51.480;7.006;2023-12-29T11:19:57;1.42;;;0.82;;
14268;SDS011;7218;51.480;7.006;2023-12-29T11:22:25;3.92;;;1.25;;
14268;SDS011;7218;51.480;7.006;2023-12-29T11:24:55;3.05;;;1.10;;
14268;SDS011;7218;51.480;7.006;2023-12-29T11:27:23;1.45;;;0.85;;
14268;SDS011;7218;51.480;7.006;2023-12-29T11:29:53;3.47;;;0.90;;
14268;SDS011;7218;51.480;7.006;2023-12-29T11:32:20;1.42;;;0.80;;
14268;SDS011;7218;51.480;7.006;2023-12-29T11:34:53;2.20;;;1.00;;
14268;SDS011;7218;51.480;7.006;2023-12-29T11:37:28;3.20;;;1.00;;
14268;SDS011;7218;51.480;7.006;2023-12-29T11:40:04;1.83;;;0.80;;
14268;SDS011;7218;51.480;7.006;2023-12-29T11:42:41;3.92;;;1.08;;
14268;SDS011;7218;51.480;7.006;2023-12-29T11:45:25;3.90;;;1.60;;
14268;SDS011;7218;51.480;7.006;2023-12-29T11:47:54;4.22;;;1.20;;
14268;SDS011;7218;51.480;7.006;2023-12-29T11:50:28;2.63;;;1.20;;
14268;SDS011;7218;51.480;7.006;2023-12-29T11:52:57;3.13;;;1.38;;
14268;SDS011;7218;51.480;7.006;2023-12-29T11:55:27;2.83;;;1.08;;
14268;SDS011;7218;51.480;7.006;2023-12-29T11:57:55;3.17;;;1.38;;
14268;SDS011;7218;51.480;7.006;2023-12-29T12:03:13;3.40;;;1.40;;
14268;SDS011;7218;51.480;7.006;2023-12-29T12:05:48;5.10;;;1.40;;
14268;SDS011;7218;51.480;7.006;2023-12-29T12:08:28;4.35;;;1.10;;
14268;SDS011;7218;51.480;7.006;2023-12-29T12:10:56;4.30;;;1.23;;
14268;SDS011;7218;51.480;7.006;2023-12-29T12:13:42;3.47;;;1.48;;
14268;SDS011;7218;51.480;7.006;2023-12-29T12:16:09;3.38;;;1.27;;
14268;SDS011;7218;51.480;7.006;2023-12-29T12:18:37;4.40;;;1.20;;
14268;SDS011;7218;51.480;7.006;2023-12-29T12:21:06;4.80;;;1.30;;
14268;SDS011;7218;51.480;7.006;2023-12-29T12:23:33;3.53;;;1.42;;
14268;SDS011;7218;51.480;7.006;2023-12-29T12:26:02;2.92;;;1.20;;
14268;SDS011;7218;51.480;7.006;2023-12-29T12:28:31;4.63;;;1.70;;
14268;SDS011;7218;51.480;7.006;2023-12-29T12:31:04;4.00;;;1.67;;
14268;SDS011;7218;51.480;7.006;2023-12-29T12:33:32;4.22;;;1.20;;
14268;SDS011;7218;51.480;7.006;2023-12-29T12:35:58;2.17;;;1.40;;
14268;SDS011;7218;51.480;7.006;2023-12-29T12:38:27;1.98;;;1.10;;
14268;SDS011;7218;51.480;7.006;2023-12-29T12:40:55;5.18;;;1.40;;
14268;SDS011;7218;51.480;7.006;2023-12-29T12:43:22;4.65;;;1.80;;
14268;SDS011;7218;51.480;7.006;2023-12-29T12:45:52;4.60;;;1.25;;
14268;SDS011;7218;51.480;7.006;2023-12-29T12:48:22;3.25;;;1.35;;
14268;SDS011;7218;51.480;7.006;2023-12-29T12:50:53;4.25;;;1.40;;
14268;SDS011;7218;51.480;7.006;2023-12-29T12:53:22;4.05;;;1.45;;
14268;SDS011;7218;51.480;7.006;2023-12-29T12:55:50;2.08;;;1.20;;
14268;SDS011;7218;51.480;7.006;2023-12-29T12:58:19;3.78;;;1.40;;
14268;SDS011;7218;51.480;7.006;2023-12-29T13:00:46;2.33;;;1.45;;
14268;SDS011;7218;51.480;7.006;2023-12-29T13:03:13;3.03;;;1.60;;
14268;SDS011;7218;51.480;7.006;2023-12-29T13:05:41;4.53;;;1.90;;
14268;SDS011;7218;51.480;7.006;2023-12-29T13:08:08;3.95;;;2.65;;
14268;SDS011;7218;51.480;7.006;2023-12-29T13:10:40;3.22;;;2.20;;
14268;SDS011;7218;51.480;7.006;2023-12-29T13:13:11;1.90;;;1.58;;
14268;SDS011;7218;51.480;7.006;2023-12-29T13:15:44;2.67;;;1.27;;
14268;SDS011;7218;51.480;7.006;2023-12-29T13:18:12;2.05;;;1.20;;
14268;SDS011;7218;51.480;7.006;2023-12-29T13:20:43;1.30;;;1.20;;
14268;SDS011;7218;51.480;7.006;2023-12-29T13:23:10;2.08;;;1.40;;
14268;SDS011;7218;51.480;7.006;2023-12-29T13:25:36;2.15;;;1.35;;
14268;SDS011;7218;51.480;7.006;2023-12-29T13:28:06;4.45;;;1.50;;
14268;SDS011;7218;51.480;7.006;2023-12-29T13:30:34;3.38;;;1.98;;
14268;SDS011;7218;51.480;7.006;2023-12-29T13:33:07;2.40;;;1.38;;
14268;SDS011;7218;51.480;7.006;2023-12-29T13:35:39;4.15;;;1.60;;
14268;SDS011;7218;51.480;7.006;2023-12-29T13:38:16;3.78;;;1.50;;
14268;SDS011;7218;51.480;7.006;2023-12-29T13:40:47;2.83;;;1.50;;
14268;SDS011;7218;51.480;7.006;2023-12-29T13:43:22;2.95;;;1.10;;
14268;SDS011;7218;51.480;7.006;2023-12-29T13:45:50;4.32;;;1.50;;
14268;SDS011;7218;51.480;7.006;2023-12-29T13:48:17;1.80;;;1.20;;
14268;SDS011;7218;51.480;7.006;2023-12-29T13:50:44;3.13;;;1.55;;
14268;SDS011;7218;51.480;7.006;2023-12-29T13:53:15;2.78;;;1.60;;
14268;SDS011;7218;51.480;7.006;2023-12-29T13:55:43;5.35;;;1.85;;
14268;SDS011;7218;51.480;7.006;2023-12-29T13:58:10;2.42;;;1.40;;
14268;SDS011;7218;51.480;7.006;2023-12-29T14:00:37;4.40;;;1.80;;
14268;SDS011;7218;51.480;7.006;2023-12-29T14:03:11;2.55;;;1.48;;
14268;SDS011;7218;51.480;7.006;2023-12-29T14:05:47;3.65;;;1.67;;
14268;SDS011;7218;51.480;7.006;2023-12-29T14:08:16;4.53;;;1.30;;
14268;SDS011;7218;51.480;7.006;2023-12-29T14:10:45;6.00;;;1.83;;
14268;SDS011;7218;51.480;7.006;2023-12-29T14:13:12;4.53;;;1.90;;
14268;SDS011;7218;51.480;7.006;2023-12-29T14:15:41;2.88;;;1.50;;
14268;SDS011;7218;51.480;7.006;2023-12-29T14:18:15;3.97;;;1.40;;
14268;SDS011;7218;51.480;7.006;2023-12-29T14:20:57;3.05;;;1.23;;
14268;SDS011;7218;51.480;7.006;2023-12-29T14:23:24;4.30;;;1.50;;
14268;SDS011;7218;51.480;7.006;2023-12-29T14:25:51;2.30;;;1.20;;
14268;SDS011;7218;51.480;7.006;2023-12-29T14:28:18;4.05;;;1.13;;
14268;SDS011;7218;51.480;7.006;2023-12-29T14:30:46;3.60;;;1.60;;
14268;SDS011;7218;51.480;7.006;2023-12-29T14:33:14;5.82;;;1.40;;
14268;SDS011;7218;51.480;7.006;2023-12-29T14:35:40;3.50;;;1.55;;
14268;SDS011;7218;51.480;7.006;2023-12-29T14:38:07;6.22;;;1.33;;
14268;SDS011;7218;51.480;7.006;2023-12-29T14:40:33;3.08;;;1.40;;
14268;SDS011;7218;51.480;7.006;2023-12-29T14:43:00;4.22;;;1.40;;
14268;SDS011;7218;51.480;7.006;2023-12-29T14:45:27;4.57;;;1.67;;
14268;SDS011;7218;51.480;7.006;2023-12-29T14:47:54;4.18;;;1.30;;
14268;SDS011;7218;51.480;7.006;2023-12-29T14:50:22;3.42;;;1.27;;
14268;SDS011;7218;51.480;7.006;2023-12-29T14:52:49;3.22;;;1.50;;
14268;SDS011;7218;51.480;7.006;2023-12-29T14:55:15;2.13;;;1.20;;
14268;SDS011;7218;51.480;7.006;2023-12-29T14:57:41;2.25;;;1.40;;
14268;SDS011;7218;51.480;7.006;2023-12-29T15:00:09;3.58;;;0.95;;
14268;SDS011;7218;51.480;7.006;2023-12-29T15:02:37;2.95;;;1.13;;
14268;SDS011;7218;51.480;7.006;2023-12-29T15:05:03;3.55;;;1.20;;
14268;SDS011;7218;51.480;7.006;2023-12-29T15:07:31;2.75;;;1.05;;